Time;durP1;ratioP1;P1;durP2;ratioP2;P2;SDS_P1;SDS_P2;PMS_P1;PMS_P2;Temp;Humidity;BMP_temperature;BMP_pressure;BME280_temperature;BME280_humidity;BME280_pressure;Samples;Min_cycle;Max_cycle;Signal;HPM_P1;HPM_P2
2021/06/18 00:00:40;;;;;;;7.35;3.80;;;;;;;17.35;97.14;96033.94;5038044;28;20197;-75
2021/06/18 00:03:06;;;;;;;9.60;4.20;;;;;;;17.46;98.56;96036.66;5037736;28;20229;-76
2021/06/18 00:05:33;;;;;;;7.82;4.85;;;;;;;17.56;97.15;96033.50;5036855;28;20232;-77
2021/06/18 00:07:59;;;;;;;6.47;3.95;;;;;;;17.52;96.69;96035.78;5038111;28;20201;-76
2021/06/18 00:10:27;;;;;;;9.32;4.00;;;;;;;17.31;95.02;96033.59;5037206;28;20205;-75
2021/06/18 00:12:53;;;;;;;6.10;3.58;;;;;;;17.22;95.40;96036.72;5037346;28;20200;-76
2021/06/18 00:15:20;;;;;;;5.65;3.40;;;;;;;17.25;95.81;96031.00;5036949;28;20283;-75
2021/06/18 00:17:48;;;;;;;8.75;4.30;;;;;;;17.29;95.77;96030.34;5038137;28;20193;-76
2021/06/18 00:20:15;;;;;;;10.35;4.45;;;;;;;17.20;95.91;96028.97;5036907;28;20209;-76
2021/06/18 00:22:43;;;;;;;8.43;4.00;;;;;;;17.07;96.82;96019.50;5037060;28;20232;-75
2021/06/18 00:25:12;;;;;;;15.85;4.13;;;;;;;17.04;97.26;96023.41;5037091;28;20715;-75
2021/06/18 00:27:38;;;;;;;9.50;3.97;;;;;;;17.08;95.66;96017.44;5036814;28;20205;-76
2021/06/18 00:30:08;;;;;;;6.40;3.60;;;;;;;17.10;94.68;96022.53;5037173;28;20212;-75
2021/06/18 00:32:34;;;;;;;8.32;3.90;;;;;;;17.09;93.14;96019.09;5037187;28;20220;-75
2021/06/18 00:35:02;;;;;;;7.55;3.78;;;;;;;17.01;93.04;96025.72;5037034;28;20220;-75
2021/06/18 00:37:28;;;;;;;11.25;3.80;;;;;;;16.93;94.26;96028.66;5036945;28;20201;-76
2021/06/18 00:39:55;;;;;;;9.05;3.78;;;;;;;16.84;95.91;96029.97;5037458;28;20564;-76
2021/06/18 00:42:22;;;;;;;7.05;4.45;;;;;;;16.84;97.28;96022.00;5034897;28;20232;-76
2021/06/18 00:44:48;;;;;;;6.90;4.03;;;;;;;16.85;98.38;96026.31;5036676;28;20217;-75
2021/06/18 00:47:20;;;;;;;6.22;4.18;;;;;;;16.90;98.07;96024.59;5035598;28;20212;-76
2021/06/18 00:49:47;;;;;;;11.52;3.90;;;;;;;16.97;96.14;96032.50;5036978;28;20209;-75
2021/06/18 00:52:16;;;;;;;10.13;4.10;;;;;;;16.79;95.75;96035.16;5036681;28;20232;-76
2021/06/18 00:54:44;;;;;;;10.02;4.18;;;;;;;16.82;95.08;96032.06;5036466;28;20727;-76
2021/06/18 00:57:11;;;;;;;5.88;4.00;;;;;;;16.53;97.45;96032.75;5036649;28;20209;-75
2021/06/18 00:59:37;;;;;;;10.45;4.03;;;;;;;16.51;97.93;96037.50;5036812;28;20602;-75
2021/06/18 01:02:04;;;;;;;8.05;4.20;;;;;;;16.54;98.71;96034.38;5034820;28;20216;-76
2021/06/18 01:04:33;;;;;;;9.10;4.10;;;;;;;16.52;99.39;96036.44;5037064;28;20298;-75
2021/06/18 01:07:04;;;;;;;9.80;4.60;;;;;;;16.58;98.98;96030.25;5035786;28;21077;-76
2021/06/18 01:09:41;;;;;;;6.68;4.05;;;;;;;16.71;97.90;96024.81;5036450;28;20213;-75
2021/06/18 01:12:13;;;;;;;12.90;3.83;;;;;;;16.51;97.77;96019.66;5036627;28;20215;-76
2021/06/18 01:14:47;;;;;;;11.95;4.63;;;;;;;16.53;96.79;96017.63;5036104;28;20232;-76
2021/06/18 01:17:20;;;;;;;6.85;4.10;;;;;;;16.50;97.74;96025.22;5034669;28;20236;-76
2021/06/18 01:20:10;;;;;;;7.60;4.20;;;;;;;16.50;98.33;96023.34;5036772;28;20205;-76
2021/06/18 01:22:38;;;;;;;6.22;4.40;;;;;;;16.50;98.37;96022.56;5036124;28;20205;-75
2021/06/18 01:25:16;;;;;;;11.02;4.40;;;;;;;16.56;97.94;96022.50;5035066;28;20244;-76
2021/06/18 01:27:51;;;;;;;7.47;4.07;;;;;;;16.41;97.83;96023.84;5036830;28;20216;-76
2021/06/18 01:30:21;;;;;;;12.65;4.10;;;;;;;16.37;97.19;96028.00;5037031;28;20204;-75
2021/06/18 01:32:57;;;;;;;6.22;4.10;;;;;;;16.37;98.20;96029.81;5036370;28;20201;-75
2021/06/18 01:35:26;;;;;;;7.97;3.88;;;;;;;16.36;99.48;96021.03;5035501;28;20220;-75
2021/06/18 01:37:55;;;;;;;7.18;4.20;;;;;;;16.26;99.93;96022.56;5036615;28;20201;-76
2021/06/18 01:40:25;;;;;;;7.43;4.13;;;;;;;16.34;98.69;96016.97;5035909;28;20212;-76
2021/06/18 01:42:52;;;;;;;8.10;3.97;;;;;;;16.27;98.83;96017.03;5036020;28;20292;-75
2021/06/18 01:45:25;;;;;;;7.13;4.10;;;;;;;16.28;99.90;96018.66;5035575;28;20237;-76
2021/06/18 01:47:53;;;;;;;10.00;4.78;;;;;;;16.26;100.00;96017.25;5035747;28;20197;-76
2021/06/18 01:50:21;;;;;;;9.10;4.38;;;;;;;16.13;100.00;96015.47;5036181;28;20208;-75
2021/06/18 01:52:52;;;;;;;10.50;4.30;;;;;;;16.16;98.99;96015.00;5036508;28;21011;-76
2021/06/18 01:55:21;;;;;;;6.05;3.95;;;;;;;16.00;97.83;96012.91;5035433;28;20220;-75
2021/06/18 01:57:48;;;;;;;9.25;4.25;;;;;;;15.98;99.85;96028.22;5036601;28;20194;-76
2021/06/18 02:00:16;;;;;;;12.07;4.60;;;;;;;15.99;100.00;96031.72;5040226;28;20209;-77
2021/06/18 02:02:46;;;;;;;10.68;4.50;;;;;;;15.98;100.00;96027.44;5039705;28;20216;-75
2021/06/18 02:05:14;;;;;;;9.80;4.25;;;;;;;15.99;100.00;96024.56;5038559;28;20229;-75
2021/06/18 02:07:43;;;;;;;11.63;4.72;;;;;;;16.03;100.00;96023.09;5040430;28;20212;-75
2021/06/18 02:10:11;;;;;;;11.77;4.57;;;;;;;15.92;100.00;96023.81;5040041;28;20209;-75
2021/06/18 02:12:38;;;;;;;10.27;4.13;;;;;;;15.91;100.00;96024.00;5039656;28;20201;-75
2021/06/18 02:15:07;;;;;;;9.20;4.07;;;;;;;15.92;100.00;96023.81;5038765;28;20718;-76
2021/06/18 02:17:36;;;;;;;8.73;4.28;;;;;;;15.97;100.00;96016.00;5039705;28;20201;-76
2021/06/18 02:20:06;;;;;;;10.85;4.60;;;;;;;15.90;100.00;96020.53;5039692;28;20209;-76
2021/06/18 02:22:34;;;;;;;8.10;4.05;;;;;;;15.70;100.00;96027.00;5039330;28;20212;-76
2021/06/18 02:25:02;;;;;;;8.52;4.60;;;;;;;15.69;100.00;96033.31;5039376;28;20231;-76
2021/06/18 02:27:30;;;;;;;11.73;5.35;;;;;;;15.42;100.00;96029.19;5039060;28;20292;-76
2021/06/18 02:29:56;;;;;;;11.73;5.28;;;;;;;15.54;100.00;96030.16;5039741;28;20207;-76
2021/06/18 02:32:26;;;;;;;7.93;4.65;;;;;;;15.50;100.00;96033.44;5039334;28;20206;-75
2021/06/18 02:34:52;;;;;;;11.30;4.65;;;;;;;15.39;100.00;96032.25;5038824;28;20213;-76
2021/06/18 02:37:20;;;;;;;11.88;6.28;;;;;;;15.41;100.00;96032.88;5039318;28;20589;-76
2021/06/18 02:39:48;;;;;;;9.48;4.72;;;;;;;15.35;100.00;96035.53;5039956;28;20205;-75
2021/06/18 02:42:14;;;;;;;13.13;5.35;;;;;;;15.39;100.00;96042.09;5038796;28;20209;-75
2021/06/18 02:44:41;;;;;;;9.07;5.20;;;;;;;15.38;100.00;96051.88;5039188;28;20233;-76
2021/06/18 02:47:12;;;;;;;9.15;4.95;;;;;;;15.43;100.00;96049.41;5038787;28;20553;-76
2021/06/18 02:49:45;;;;;;;9.80;5.03;;;;;;;15.61;100.00;96046.06;5038979;28;20202;-76
2021/06/18 02:52:21;;;;;;;12.23;5.03;;;;;;;15.64;100.00;96040.31;5038966;28;20206;-75
2021/06/18 02:54:57;;;;;;;8.30;4.78;;;;;;;15.55;100.00;96046.91;5039086;28;20312;-75
2021/06/18 02:57:28;;;;;;;9.82;6.13;;;;;;;15.64;100.00;96050.94;5034816;28;20216;-76
2021/06/18 03:00:00;;;;;;;14.23;5.40;;;;;;;15.64;100.00;96048.28;5039261;28;20205;-75
2021/06/18 03:02:32;;;;;;;9.40;5.75;;;;;;;15.49;100.00;96047.72;5039284;28;20216;-76
2021/06/18 03:05:01;;;;;;;9.98;5.88;;;;;;;15.46;100.00;96048.16;5038917;28;20235;-76
2021/06/18 03:07:29;;;;;;;10.30;4.93;;;;;;;15.40;100.00;96044.53;5038557;28;20208;-76
2021/06/18 03:10:01;;;;;;;9.63;5.90;;;;;;;15.29;100.00;96050.47;5038430;28;20202;-75
2021/06/18 03:12:28;;;;;;;10.25;5.65;;;;;;;15.38;100.00;96038.59;5038288;28;20287;-75
2021/06/18 03:14:57;;;;;;;9.98;5.72;;;;;;;15.33;100.00;96042.91;5038550;28;20229;-77
2021/06/18 03:17:25;;;;;;;15.35;5.88;;;;;;;15.43;100.00;96033.47;5038283;28;20204;-77
2021/06/18 03:19:56;;;;;;;15.57;5.60;;;;;;;15.51;100.00;96040.38;5038666;28;20205;-75
2021/06/18 03:22:24;;;;;;;13.10;5.30;;;;;;;15.56;100.00;96037.91;5038265;28;20320;-76
2021/06/18 03:24:52;;;;;;;16.33;5.07;;;;;;;15.36;100.00;96039.81;5038513;28;20232;-75
2021/06/18 03:27:21;;;;;;;15.55;5.07;;;;;;;15.38;100.00;96038.59;5038031;28;20212;-75
2021/06/18 03:29:51;;;;;;;12.20;5.60;;;;;;;15.45;100.00;96046.53;5038514;28;20198;-77
2021/06/18 03:32:18;;;;;;;18.15;5.40;;;;;;;15.38;100.00;96037.78;5038622;28;20201;-75
2021/06/18 03:34:46;;;;;;;12.05;6.00;;;;;;;15.36;100.00;96047.78;5038203;28;20228;-76
2021/06/18 03:37:13;;;;;;;10.57;5.18;;;;;;;15.29;100.00;96039.06;5037306;28;20209;-75
2021/06/18 03:39:40;;;;;;;14.00;6.10;;;;;;;15.39;100.00;96044.75;5038657;28;20197;-75
2021/06/18 03:42:09;;;;;;;17.35;5.80;;;;;;;15.35;100.00;96046.16;5038424;28;20579;-76
2021/06/18 03:44:37;;;;;;;14.48;5.88;;;;;;;15.38;100.00;96043.91;5037705;28;20956;-76
2021/06/18 03:47:06;;;;;;;15.43;5.20;;;;;;;15.33;100.00;96058.84;5037337;28;20675;-76
2021/06/18 03:49:34;;;;;;;12.60;5.00;;;;;;;15.35;100.00;96054.13;5038459;28;20201;-76
2021/06/18 03:52:01;;;;;;;18.52;5.38;;;;;;;15.27;100.00;96055.19;5037514;28;20212;-76
2021/06/18 03:54:32;;;;;;;12.65;5.72;;;;;;;15.32;100.00;96051.91;5037715;28;20247;-75
2021/06/18 03:56:59;;;;;;;12.60;6.18;;;;;;;15.33;100.00;96053.53;5037824;28;20698;-75
2021/06/18 03:59:27;;;;;;;13.05;5.90;;;;;;;15.46;100.00;96050.81;5037911;28;20216;-75
2021/06/18 04:01:56;;;;;;;13.32;5.55;;;;;;;15.49;100.00;96053.03;5037550;28;20201;-76
2021/06/18 04:04:27;;;;;;;16.73;4.97;;;;;;;15.40;100.00;96060.47;5037334;28;20235;-75
2021/06/18 04:06:54;;;;;;;13.48;5.55;;;;;;;15.47;100.00;96061.22;5036823;28;20204;-75
2021/06/18 04:09:21;;;;;;;13.95;6.28;;;;;;;15.54;100.00;96063.84;5037692;28;20224;-76
2021/06/18 04:11:47;;;;;;;13.27;5.70;;;;;;;15.51;100.00;96056.31;5037924;28;20201;-76
2021/06/18 04:14:15;;;;;;;20.92;5.57;;;;;;;15.49;100.00;96063.66;5037405;28;20232;-75
2021/06/18 04:16:42;;;;;;;18.55;6.15;;;;;;;15.58;100.00;96071.19;5036609;28;20198;-75
2021/06/18 04:19:11;;;;;;;14.15;6.00;;;;;;;15.64;100.00;96072.19;5037550;28;20691;-75
2021/06/18 04:21:42;;;;;;;14.10;6.35;;;;;;;15.81;100.00;96075.97;5036866;28;20197;-76
2021/06/18 04:24:10;;;;;;;9.43;6.05;;;;;;;15.92;100.00;96079.59;5037115;28;20205;-75
2021/06/18 04:26:37;;;;;;;13.07;5.80;;;;;;;15.99;100.00;96084.88;5036854;28;20205;-76
2021/06/18 04:29:03;;;;;;;10.40;6.18;;;;;;;16.16;100.00;96080.69;5037124;28;20683;-75
2021/06/18 04:31:30;;;;;;;15.73;5.93;;;;;;;16.24;100.00;96085.72;5036942;28;20205;-75
2021/06/18 04:33:56;;;;;;;14.57;5.82;;;;;;;16.36;100.00;96084.84;5037919;28;20212;-69
2021/06/18 04:36:24;;;;;;;10.93;5.50;;;;;;;16.70;100.00;96087.03;5039052;28;20201;-70
2021/06/18 04:38:51;;;;;;;22.85;6.13;;;;;;;16.85;100.00;96074.19;5039021;28;20214;-71
2021/06/18 04:41:17;;;;;;;21.52;6.47;;;;;;;16.87;100.00;96078.28;5039117;28;20201;-70
2021/06/18 04:43:44;;;;;;;13.90;6.80;;;;;;;16.88;100.00;96079.91;5039446;28;20212;-70
2021/06/18 04:46:11;;;;;;;15.35;7.35;;;;;;;16.89;100.00;96078.88;5038829;28;20225;-71
2021/06/18 04:48:37;;;;;;;11.77;7.57;;;;;;;16.86;100.00;96076.63;5039114;28;20207;-70
2021/06/18 04:51:05;;;;;;;17.05;8.07;;;;;;;17.04;100.00;96070.53;5038937;28;20422;-70
2021/06/18 04:53:33;;;;;;;17.15;7.80;;;;;;;17.10;100.00;96073.94;5039377;28;20646;-71
2021/06/18 04:56:01;;;;;;;16.48;7.43;;;;;;;17.32;100.00;96061.88;5038082;28;20224;-71
2021/06/18 04:58:28;;;;;;;14.93;8.13;;;;;;;17.52;100.00;96057.09;5038101;28;20212;-71
2021/06/18 05:00:54;;;;;;;15.65;8.15;;;;;;;17.60;100.00;96056.78;5038901;28;20322;-69
2021/06/18 05:03:21;;;;;;;18.40;8.80;;;;;;;17.75;100.00;96052.69;5039797;28;20205;-70
2021/06/18 05:05:47;;;;;;;20.48;8.43;;;;;;;17.93;100.00;96059.84;5038020;28;20844;-70
2021/06/18 05:08:14;;;;;;;12.93;8.20;;;;;;;18.00;100.00;96055.25;5038714;28;20205;-69
2021/06/18 05:10:42;;;;;;;14.73;7.90;;;;;;;18.11;100.00;96057.13;5040010;28;20216;-71
2021/06/18 05:13:08;;;;;;;15.90;7.78;;;;;;;18.25;100.00;96058.59;5038991;28;20201;-71
2021/06/18 05:15:35;;;;;;;15.25;7.65;;;;;;;18.40;100.00;96062.44;5037888;28;20430;-71
2021/06/18 05:18:02;;;;;;;13.55;7.32;;;;;;;18.51;100.00;96067.81;5040311;28;20209;-71
2021/06/18 05:20:28;;;;;;;14.90;8.40;;;;;;;18.64;100.00;96075.59;5039667;28;20201;-71
2021/06/18 05:22:55;;;;;;;14.07;7.90;;;;;;;18.80;100.00;96085.63;5039723;28;20204;-70
2021/06/18 05:25:21;;;;;;;18.20;8.35;;;;;;;18.97;98.50;96087.34;5039021;28;20236;-69
2021/06/18 05:27:49;;;;;;;12.73;8.10;;;;;;;19.18;93.01;96085.97;5039667;28;20679;-71
2021/06/18 05:30:17;;;;;;;11.30;7.80;;;;;;;19.41;94.13;96091.31;5039039;28;20205;-71
2021/06/18 05:32:44;;;;;;;14.10;7.88;;;;;;;19.51;94.45;96088.84;5040314;28;20306;-70
2021/06/18 05:35:11;;;;;;;15.25;7.95;;;;;;;19.57;93.47;96086.06;5043859;28;20228;-70
2021/06/18 05:37:37;;;;;;;13.68;6.78;;;;;;;19.60;97.44;96089.06;5044085;28;20706;-70
2021/06/18 05:40:06;;;;;;;15.02;7.78;;;;;;;19.58;97.08;96071.66;5045072;28;20200;-71
2021/06/18 05:42:32;;;;;;;13.43;8.40;;;;;;;19.67;95.45;96068.34;5044448;28;20208;-71
2021/06/18 05:45:00;;;;;;;14.40;7.53;;;;;;;19.82;94.32;96074.00;5044950;28;20695;-71
2021/06/18 05:47:27;;;;;;;12.20;7.30;;;;;;;19.97;95.05;96084.22;5045414;28;20211;-71
2021/06/18 05:49:53;;;;;;;14.98;8.40;;;;;;;20.08;92.64;96089.53;5042978;28;20197;-72
2021/06/18 05:52:20;;;;;;;15.82;8.40;;;;;;;20.15;91.14;96089.38;5045195;28;20201;-71
2021/06/18 05:54:46;;;;;;;10.95;6.18;;;;;;;20.27;89.73;96096.31;5043859;28;20225;-71
2021/06/18 05:57:13;;;;;;;19.45;9.10;;;;;;;20.32;89.79;96091.06;5043878;28;20205;-71
2021/06/18 05:59:39;;;;;;;17.02;9.45;;;;;;;20.46;89.44;96090.50;5043687;28;21098;-72
2021/06/18 06:02:07;;;;;;;15.30;9.43;;;;;;;20.60;89.07;96091.03;5045367;28;20201;-72
2021/06/18 06:04:34;;;;;;;22.70;9.60;;;;;;;20.59;89.30;96106.25;5045246;28;20220;-71
2021/06/18 06:07:01;;;;;;;20.30;10.02;;;;;;;20.73;89.94;96106.81;5042785;28;20770;-69
2021/06/18 06:09:27;;;;;;;15.18;8.02;;;;;;;20.54;89.03;96129.47;5043934;28;20205;-69
2021/06/18 06:11:53;;;;;;;17.95;8.73;;;;;;;20.31;91.17;96130.41;5045304;28;20224;-71
2021/06/18 06:14:21;;;;;;;18.73;7.32;;;;;;;20.43;90.49;96127.63;5044472;28;20229;-71
2021/06/18 06:16:47;;;;;;;15.95;8.90;;;;;;;20.46;92.74;96148.59;5044406;28;20208;-71
2021/06/18 06:19:16;;;;;;;17.52;9.20;;;;;;;20.50;89.38;96139.03;5043788;28;20201;-71
2021/06/18 06:21:43;;;;;;;13.48;8.23;;;;;;;20.47;90.67;96147.56;5043408;28;20216;-70
2021/06/18 06:24:10;;;;;;;13.23;8.45;;;;;;;20.49;92.30;96148.09;5044810;28;20224;-71
2021/06/18 06:26:37;;;;;;;11.40;8.40;;;;;;;20.50;89.03;96139.03;5041525;28;20229;-69
2021/06/18 06:29:04;;;;;;;13.13;8.68;;;;;;;20.54;89.24;96140.97;5044677;28;20201;-71
2021/06/18 06:31:31;;;;;;;16.45;8.32;;;;;;;20.63;87.94;96138.72;5042321;28;20209;-71
2021/06/18 06:33:57;;;;;;;12.65;8.23;;;;;;;20.61;87.73;96147.00;5044232;28;21135;-70
2021/06/18 06:36:25;;;;;;;13.98;8.68;;;;;;;20.67;87.18;96140.69;5043806;28;20217;-71
2021/06/18 06:38:52;;;;;;;15.10;9.05;;;;;;;20.75;85.12;96143.00;5044686;28;20302;-71
2021/06/18 06:41:18;;;;;;;15.20;8.80;;;;;;;20.71;86.40;96123.09;5044470;28;20232;-72
2021/06/18 06:43:45;;;;;;;18.73;8.65;;;;;;;20.80;87.75;96128.88;5044480;28;20205;-70
2021/06/18 06:46:11;;;;;;;17.73;9.68;;;;;;;20.93;86.20;96140.09;5043463;28;20225;-70
2021/06/18 06:48:38;;;;;;;20.23;9.73;;;;;;;21.02;84.82;96136.75;5043334;28;20204;-73
2021/06/18 06:51:05;;;;;;;15.45;9.27;;;;;;;21.14;85.49;96126.78;5038997;28;20205;-73
2021/06/18 06:53:32;;;;;;;14.15;9.18;;;;;;;21.24;81.90;96121.56;5036844;28;20201;-73
2021/06/18 06:55:59;;;;;;;18.23;10.32;;;;;;;21.26;81.36;96134.75;5037703;28;20850;-73
2021/06/18 06:58:26;;;;;;;18.38;9.82;;;;;;;21.37;77.91;96125.78;5038604;28;21139;-73
2021/06/18 07:00:52;;;;;;;20.10;9.85;;;;;;;21.41;75.56;96117.00;5039149;28;20228;-73
2021/06/18 07:03:19;;;;;;;20.95;9.82;;;;;;;21.54;75.66;96124.72;5038710;28;20209;-73
2021/06/18 07:05:45;;;;;;;20.45;8.88;;;;;;;21.65;73.09;96123.78;5037747;28;20225;-73
2021/06/18 07:08:18;;;;;;;15.80;8.18;;;;;;;21.83;74.89;96128.84;5039242;28;20209;-73
2021/06/18 07:10:46;;;;;;;14.32;8.77;;;;;;;22.09;73.22;96119.00;5038471;28;20201;-74
2021/06/18 07:13:12;;;;;;;16.02;7.95;;;;;;;22.15;72.49;96120.69;5038478;28;20205;-73
2021/06/18 07:15:39;;;;;;;14.50;8.30;;;;;;;22.28;72.97;96124.91;5038343;28;20229;-73
2021/06/18 07:18:06;;;;;;;15.55;7.72;;;;;;;22.49;69.64;96110.63;5038350;28;20205;-73
2021/06/18 07:20:33;;;;;;;14.05;7.40;;;;;;;22.66;73.07;96117.50;5037993;28;20211;-73
2021/06/18 07:22:59;;;;;;;12.68;7.65;;;;;;;22.79;74.40;96125.16;5038706;28;20564;-73
2021/06/18 07:25:26;;;;;;;17.55;8.15;;;;;;;22.99;70.88;96117.31;5038011;28;20805;-73
2021/06/18 07:27:53;;;;;;;13.85;8.38;;;;;;;23.20;66.59;96125.25;5037980;28;20208;-73
2021/06/18 07:30:22;;;;;;;15.77;8.60;;;;;;;23.27;69.67;96125.03;5038290;28;20209;-73
2021/06/18 07:32:49;;;;;;;15.65;8.07;;;;;;;23.36;70.42;96125.09;5038965;28;20711;-73
2021/06/18 07:35:15;;;;;;;17.35;8.45;;;;;;;23.47;68.02;96112.53;5037703;28;20235;-74
2021/06/18 07:37:43;;;;;;;13.70;7.30;;;;;;;23.57;67.01;96110.72;5038209;28;20201;-74
2021/06/18 07:40:12;;;;;;;9.50;7.32;;;;;;;23.66;69.87;96106.50;5038414;28;20212;-74
2021/06/18 07:42:38;;;;;;;13.70;7.57;;;;;;;23.91;69.32;96112.00;5038338;28;20580;-74
2021/06/18 07:45:07;;;;;;;12.00;6.72;;;;;;;24.07;67.11;96109.13;5036960;28;20901;-74
2021/06/18 07:47:34;;;;;;;12.48;7.03;;;;;;;24.20;64.69;96110.53;5037967;28;20201;-74
2021/06/18 07:50:00;;;;;;;9.10;6.90;;;;;;;24.37;61.21;96103.03;5037973;28;20205;-74
2021/06/18 07:52:27;;;;;;;11.43;6.68;;;;;;;24.31;67.54;96104.91;5037999;28;20205;-74
2021/06/18 07:54:56;;;;;;;13.00;6.72;;;;;;;24.50;63.99;96106.03;5035163;28;20303;-74
2021/06/18 07:57:22;;;;;;;11.90;6.07;;;;;;;24.69;60.79;96110.69;5037057;28;20649;-74
2021/06/18 07:59:49;;;;;;;15.75;6.32;;;;;;;24.76;58.71;96105.84;5037535;28;20205;-74
2021/06/18 08:02:17;;;;;;;9.57;6.22;;;;;;;24.79;59.21;96101.78;5036781;28;20726;-74
2021/06/18 08:04:43;;;;;;;10.30;5.72;;;;;;;24.76;61.89;96103.13;5036493;28;20231;-74
2021/06/18 08:07:10;;;;;;;7.47;5.50;;;;;;;24.90;59.44;96095.34;5035881;28;20225;-74
2021/06/18 08:09:36;;;;;;;8.13;5.70;;;;;;;25.00;60.34;96101.53;5036569;28;20208;-74
2021/06/18 08:12:04;;;;;;;11.02;5.85;;;;;;;25.18;59.59;96101.03;5036958;28;20204;-74
2021/06/18 08:14:30;;;;;;;15.20;5.40;;;;;;;25.28;59.97;96099.13;5036357;28;20244;-74
2021/06/18 08:16:57;;;;;;;8.57;6.10;;;;;;;25.40;61.39;96086.16;5036216;28;20205;-74
2021/06/18 08:19:25;;;;;;;7.75;5.18;;;;;;;25.59;61.78;96091.81;5037262;28;20205;-74
2021/06/18 08:21:51;;;;;;;8.30;5.30;;;;;;;25.53;58.45;96096.38;5036785;28;20197;-74
2021/06/18 08:24:18;;;;;;;8.73;5.72;;;;;;;25.54;59.90;96092.59;5036375;28;20476;-74
2021/06/18 08:26:44;;;;;;;7.18;5.43;;;;;;;25.66;62.37;96095.00;5036453;28;20229;-74
2021/06/18 08:29:11;;;;;;;8.70;5.32;;;;;;;25.82;59.08;96093.94;5036326;28;20209;-75
2021/06/18 08:31:37;;;;;;;8.90;5.20;;;;;;;25.95;60.61;96092.28;5035966;28;20299;-74
2021/06/18 08:34:04;;;;;;;9.35;5.32;;;;;;;26.16;59.23;96096.50;5037345;28;20207;-74
2021/06/18 08:36:32;;;;;;;7.72;5.70;;;;;;;26.29;57.01;96093.19;5036957;28;20660;-74
2021/06/18 08:38:58;;;;;;;7.55;5.50;;;;;;;26.30;58.27;96091.28;5036185;28;20781;-74
2021/06/18 08:41:25;;;;;;;13.68;5.90;;;;;;;26.35;59.60;96097.53;5035932;28;20753;-74
2021/06/18 08:43:51;;;;;;;15.18;5.47;;;;;;;26.43;58.50;96096.13;5036895;28;20224;-74
2021/06/18 08:46:18;;;;;;;9.13;5.53;;;;;;;26.37;58.96;96100.72;5035112;28;20233;-74
2021/06/18 08:48:47;;;;;;;8.85;5.70;;;;;;;26.42;59.71;96106.13;5036572;28;20527;-74
2021/06/18 08:51:14;;;;;;;7.68;5.45;;;;;;;26.64;57.28;96110.06;5036538;28;20205;-74
2021/06/18 08:53:43;;;;;;;8.20;5.10;;;;;;;26.78;58.71;96096.69;5035836;28;20229;-74
2021/06/18 08:56:10;;;;;;;8.35;5.50;;;;;;;26.98;63.23;96089.28;5035179;28;20600;-74
2021/06/18 08:58:37;;;;;;;6.43;5.05;;;;;;;27.05;57.76;96099.78;5036209;28;20197;-74
2021/06/18 09:01:04;;;;;;;9.73;4.85;;;;;;;26.98;56.30;96099.31;5036298;28;20284;-74
2021/06/18 09:03:37;;;;;;;9.27;5.40;;;;;;;27.06;56.33;96102.19;5036084;28;20209;-75
2021/06/18 09:06:23;;;;;;;8.82;5.32;;;;;;;27.14;54.88;96105.13;5035625;28;20396;-74
2021/06/18 09:09:19;;;;;;;7.72;4.88;;;;;;;27.23;54.65;96097.22;5034831;28;20733;-74
2021/06/18 09:11:49;;;;;;;10.02;5.32;;;;;;;27.27;58.01;96095.56;5035771;28;20205;-74
2021/06/18 09:14:30;;;;;;;10.52;4.97;;;;;;;27.39;56.64;96093.25;5035946;28;20232;-74
2021/06/18 09:17:11;;;;;;;11.60;5.72;;;;;;;27.53;57.42;96100.44;5034745;28;20201;-74
2021/06/18 09:19:40;;;;;;;7.88;5.22;;;;;;;27.86;56.84;96097.69;5035318;28;20197;-74
2021/06/18 09:22:08;;;;;;;8.50;5.35;;;;;;;27.90;57.49;96095.19;5035897;28;20964;-74
2021/06/18 09:24:38;;;;;;;6.95;5.10;;;;;;;28.02;57.97;96096.41;5035740;28;20490;-74
2021/06/18 09:27:06;;;;;;;11.93;4.97;;;;;;;28.12;58.61;96100.88;5034746;28;20233;-74
2021/06/18 09:29:34;;;;;;;7.07;4.95;;;;;;;28.35;58.70;96099.00;5035961;28;20213;-74
2021/06/18 09:32:03;;;;;;;9.50;5.22;;;;;;;28.40;55.35;96100.84;5035704;28;20686;-74
2021/06/18 09:34:50;;;;;;;7.60;5.05;;;;;;;28.18;56.40;96097.06;5035882;28;20628;-74
2021/06/18 09:37:30;;;;;;;7.85;5.03;;;;;;;28.31;55.73;96105.31;5035626;28;20687;-74
2021/06/18 09:40:07;;;;;;;9.32;5.30;;;;;;;28.29;51.59;96091.22;5035702;28;20211;-74
2021/06/18 09:42:35;;;;;;;9.55;5.00;;;;;;;28.24;54.78;96094.00;5035287;28;20761;-74
2021/06/18 09:45:06;;;;;;;7.72;5.00;;;;;;;28.54;53.44;96102.56;5035509;28;20248;-74
2021/06/18 09:47:34;;;;;;;5.05;4.55;;;;;;;28.64;54.40;96105.13;5035723;28;20224;-74
2021/06/18 09:50:01;;;;;;;7.72;4.78;;;;;;;28.68;53.85;96098.03;5034990;28;20237;-74
2021/06/18 09:52:27;;;;;;;8.57;4.53;;;;;;;28.96;52.72;96092.47;5035189;28;20691;-74
2021/06/18 09:54:54;;;;;;;8.98;4.65;;;;;;;29.31;51.38;96088.41;5036336;28;20666;-74
2021/06/18 09:57:24;;;;;;;7.53;4.10;;;;;;;29.37;48.51;96096.16;5034452;28;20579;-75
2021/06/18 09:59:57;;;;;;;7.45;4.40;;;;;;;29.43;53.65;96086.84;5035321;28;20205;-75
2021/06/18 10:02:36;;;;;;;5.20;4.00;;;;;;;29.44;51.50;96091.13;5035604;28;20212;-74
2021/06/18 10:05:05;;;;;;;6.57;4.25;;;;;;;29.49;50.65;96096.47;5034416;28;20224;-75
2021/06/18 10:07:33;;;;;;;7.07;4.40;;;;;;;29.20;56.41;96095.88;5035372;28;20308;-74
2021/06/18 10:10:01;;;;;;;6.63;4.22;;;;;;;29.28;49.81;96094.41;5034940;28;20739;-74
2021/06/18 10:12:30;;;;;;;5.10;4.28;;;;;;;29.45;49.73;96091.97;5034702;28;20204;-74
2021/06/18 10:15:04;;;;;;;4.18;3.75;;;;;;;29.65;50.68;96084.25;5035421;28;21348;-74
2021/06/18 10:17:31;;;;;;;10.32;4.18;;;;;;;29.64;49.37;96088.88;5035912;28;20201;-74
2021/06/18 10:19:57;;;;;;;7.75;4.40;;;;;;;29.64;51.99;96091.59;5038032;28;20197;-74
2021/06/18 10:22:25;;;;;;;7.22;4.20;;;;;;;29.75;51.15;96084.88;5039234;28;20205;-75
2021/06/18 10:24:59;;;;;;;6.13;3.92;;;;;;;29.69;49.95;96091.50;5039670;28;20225;-75
2021/06/18 10:27:32;;;;;;;7.60;4.07;;;;;;;29.95;52.94;96089.16;5036649;28;20232;-74
2021/06/18 10:29:59;;;;;;;8.30;3.90;;;;;;;30.03;48.30;96085.72;5039404;28;21151;-74
2021/06/18 10:32:36;;;;;;;7.88;3.60;;;;;;;30.18;45.46;96085.41;5039632;28;20205;-74
2021/06/18 10:35:06;;;;;;;7.07;4.07;;;;;;;30.23;50.25;96086.94;5039068;28;20626;-74
2021/06/18 10:37:33;;;;;;;6.68;3.97;;;;;;;30.04;46.74;96081.91;5039160;28;20193;-74
2021/06/18 10:40:07;;;;;;;8.10;4.60;;;;;;;29.98;47.60;96078.47;5039330;28;21044;-75
2021/06/18 10:42:35;;;;;;;7.05;4.07;;;;;;;30.16;48.57;96084.94;5039249;28;20200;-74
2021/06/18 10:45:02;;;;;;;7.95;4.13;;;;;;;29.96;47.32;96085.31;5038870;28;20233;-74
2021/06/18 10:47:44;;;;;;;4.10;3.47;;;;;;;30.28;47.60;96080.56;5039446;28;20221;-74
2021/06/18 10:50:14;;;;;;;7.68;3.60;;;;;;;30.31;44.95;96080.00;5039003;28;20202;-74
2021/06/18 10:52:43;;;;;;;5.63;3.70;;;;;;;30.44;44.52;96071.03;5038425;28;20197;-75
2021/06/18 10:55:10;;;;;;;5.28;3.53;;;;;;;30.56;43.54;96068.59;5038616;28;20320;-74
2021/06/18 10:57:52;;;;;;;4.20;3.30;;;;;;;30.62;42.17;96075.53;5039669;28;20271;-74
2021/06/18 11:00:22;;;;;;;5.80;3.40;;;;;;;30.76;41.98;96074.38;5038501;28;20262;-75
2021/06/18 11:02:49;;;;;;;6.43;3.50;;;;;;;30.87;41.87;96071.09;5038001;28;20233;-75
2021/06/18 11:05:36;;;;;;;5.72;3.90;;;;;;;30.96;44.82;96074.75;5037537;28;20680;-75
2021/06/18 11:08:28;;;;;;;9.60;4.05;;;;;;;31.04;41.48;96075.94;5038354;28;20224;-74
2021/06/18 11:10:58;;;;;;;4.07;3.50;;;;;;;30.75;40.94;96061.09;5038207;28;20197;-75
2021/06/18 11:13:27;;;;;;;6.35;3.60;;;;;;;30.89;45.74;96060.75;5038119;28;20611;-75
2021/06/18 11:15:54;;;;;;;4.38;3.35;;;;;;;30.67;41.63;96062.59;5037015;28;20647;-75
2021/06/18 11:18:33;;;;;;;6.88;3.45;;;;;;;30.98;40.16;96058.91;5038010;28;20205;-75
2021/06/18 11:21:01;;;;;;;4.82;2.80;;;;;;;31.02;38.80;96057.19;5037328;28;20217;-75
2021/06/18 11:23:31;;;;;;;3.30;2.92;;;;;;;31.07;36.13;96065.22;5037945;28;20563;-75
2021/06/18 11:26:04;;;;;;;5.20;2.95;;;;;;;31.08;37.96;96053.19;5037188;28;20221;-74
2021/06/18 11:28:35;;;;;;;6.40;3.10;;;;;;;31.21;37.34;96048.81;5037468;28;20236;-74
2021/06/18 11:31:05;;;;;;;6.07;3.13;;;;;;;31.27;38.04;96053.03;5035016;28;20205;-75
2021/06/18 11:33:52;;;;;;;6.13;3.40;;;;;;;31.05;37.01;96051.09;5034787;28;20205;-75